Aviation Digital Data Service (ADDS)

Output produced by METARs form (2140 UTC 18 April 2021)
found at http://www.aviationweather.gov/metar/data/
 
METAR text: RJAF 180700Z 24018KT 9999 VCSH FEW030 SCT060 BKN080 10/M05 Q1000
Conditions at: RJAF (MATSUMOTO AIRPOR, JP) observed 0700 UTC 18 April 2021
Temperature: 10.0°C (50°F)
Dewpoint: -5.0°C (23°F) [RH = 34%]
Pressure (altimeter): 29.53 inches Hg (1000.0 mb)
Winds: from the WSW (240 degrees) at 21 MPH (18 knots; 9.3 m/s)
Visibility: 6 or more miles (10+ km)
Ceiling: 8000 feet AGL
Clouds: few clouds at 3000 feet AGL
scattered clouds at 6000 feet AGL
broken clouds at 8000 feet AGL
Weather: VCSH  (showers in vicinity)

METAR text: RJAF 180600Z 23017KT 9999 FEW040 SCT060 10/M04 Q1000
Conditions at: RJAF (MATSUMOTO AIRPOR, JP) observed 0600 UTC 18 April 2021
Temperature: 10.0°C (50°F)
Dewpoint: -4.0°C (25°F) [RH = 37%]
Pressure (altimeter): 29.53 inches Hg (1000.0 mb)
Winds: from the SW (230 degrees) at 20 MPH (17 knots; 8.7 m/s)
Visibility: 6 or more miles (10+ km)
Ceiling: at least 12,000 feet AGL
Clouds: few clouds at 4000 feet AGL
scattered clouds at 6000 feet AGL
Weather: no significant weather observed at this time

METAR text: RJAF 180500Z 24016G27KT 200V280 9999 FEW040 BKN060 11/M05 Q1000
Conditions at: RJAF (MATSUMOTO AIRPOR, JP) observed 0500 UTC 18 April 2021
Temperature: 11.0°C (52°F)
Dewpoint: -5.0°C (23°F) [RH = 32%]
Pressure (altimeter): 29.53 inches Hg (1000.0 mb)
Winds: from the WSW (240 degrees) at 18 MPH (16 knots; 8.2 m/s)
gusting to 31 MPH (27 knots; 13.9 m/s)
Visibility: 6 or more miles (10+ km)
Ceiling: 6000 feet AGL
Clouds: few clouds at 4000 feet AGL
broken clouds at 6000 feet AGL
Weather: no significant weather observed at this time

METAR text: RJAF 180400Z 25021G33KT 220V280 9999 VCSH FEW025 SCT050 10/M02 Q1001
Conditions at: RJAF (MATSUMOTO AIRPOR, JP) observed 0400 UTC 18 April 2021
Temperature: 10.0°C (50°F)
Dewpoint: -2.0°C (28°F) [RH = 43%]
Pressure (altimeter): 29.56 inches Hg (1001.0 mb)
Winds: from the WSW (250 degrees) at 24 MPH (21 knots; 10.8 m/s)
gusting to 38 MPH (33 knots; 17.0 m/s)
Visibility: 6 or more miles (10+ km)
Ceiling: at least 12,000 feet AGL
Clouds: few clouds at 2500 feet AGL
scattered clouds at 5000 feet AGL
Weather: VCSH  (showers in vicinity)

METAR text: RJAF 180300Z 25019KT 220V280 9999 VCSH FEW030 09/M03 Q1001
Conditions at: RJAF (MATSUMOTO AIRPOR, JP) observed 0300 UTC 18 April 2021
Temperature: 9.0°C (48°F)
Dewpoint: -3.0°C (27°F) [RH = 43%]
Pressure (altimeter): 29.56 inches Hg (1001.0 mb)
Winds: from the WSW (250 degrees) at 22 MPH (19 knots; 9.8 m/s)
Visibility: 6 or more miles (10+ km)
Ceiling: at least 12,000 feet AGL
Clouds: few clouds at 3000 feet AGL
Weather: VCSH  (showers in vicinity)

METAR text: RJAF 180200Z 24017G27KT 9999 -SHRA FEW010 SCT045 BKN070 10/00 Q1002
Conditions at: RJAF (MATSUMOTO AIRPOR, JP) observed 0200 UTC 18 April 2021
Temperature: 10.0°C (50°F)
Dewpoint: 0.0°C (32°F) [RH = 50%]
Pressure (altimeter): 29.59 inches Hg (1002.0 mb)
Winds: from the WSW (240 degrees) at 20 MPH (17 knots; 8.7 m/s)
gusting to 31 MPH (27 knots; 13.9 m/s)
Visibility: 6 or more miles (10+ km)
Ceiling: 7000 feet AGL
Clouds: few clouds at 1000 feet AGL
scattered clouds at 4500 feet AGL
broken clouds at 7000 feet AGL
Weather: -SHRA  (light rain showers)

METAR text: RJAF 180100Z 23005KT 210V270 9999 -SHRA FEW010 SCT030 BKN035 07/02 Q1002
Conditions at: RJAF (MATSUMOTO AIRPOR, JP) observed 0100 UTC 18 April 2021
Temperature: 7.0°C (45°F)
Dewpoint: 2.0°C (36°F) [RH = 70%]
Pressure (altimeter): 29.59 inches Hg (1002.0 mb)
Winds: from the SW (230 degrees) at 6 MPH (5 knots; 2.6 m/s)
Visibility: 6 or more miles (10+ km)
Ceiling: 3500 feet AGL
Clouds: few clouds at 1000 feet AGL
scattered clouds at 3000 feet AGL
broken clouds at 3500 feet AGL
Weather: -SHRA  (light rain showers)

METAR text: RJAF 180000Z 20012KT 160V240 9999 VCSH FEW010 SCT050 BKN060 09/00 Q1002
Conditions at: RJAF (MATSUMOTO AIRPOR, JP) observed 0000 UTC 18 April 2021
Temperature: 9.0°C (48°F)
Dewpoint: 0.0°C (32°F) [RH = 53%]
Pressure (altimeter): 29.59 inches Hg (1002.0 mb)
Winds: from the SSW (200 degrees) at 14 MPH (12 knots; 6.2 m/s)
Visibility: 6 or more miles (10+ km)
Ceiling: 6000 feet AGL
Clouds: few clouds at 1000 feet AGL
scattered clouds at 5000 feet AGL
broken clouds at 6000 feet AGL
Weather: VCSH  (showers in vicinity)

METAR text: RJAF 172330Z 24011KT 9999 VCSH FEW015 SCT050 BKN070 09/M01 Q1002
Conditions at: RJAF (MATSUMOTO AIRPOR, JP) observed 2330 UTC 17 April 2021
Temperature: 9.0°C (48°F)
Dewpoint: -1.0°C (30°F) [RH = 49%]
Pressure (altimeter): 29.59 inches Hg (1002.0 mb)
Winds: from the WSW (240 degrees) at 13 MPH (11 knots; 5.7 m/s)
Visibility: 6 or more miles (10+ km)
Ceiling: 7000 feet AGL
Clouds: few clouds at 1500 feet AGL
scattered clouds at 5000 feet AGL
broken clouds at 7000 feet AGL
Weather: VCSH  (showers in vicinity)

METAR text: RJAF 172310Z 24013KT 200V280 9999 VCSH FEW015 SCT050 BKN090 09/M01 Q1002 RMK 2ST015 3CU050 5AC090 A2959
Conditions at: RJAF (MATSUMOTO AIRPOR, JP) observed 2310 UTC 17 April 2021
Temperature: 9.0°C (48°F)
Dewpoint: -1.0°C (30°F) [RH = 49%]
Pressure (altimeter): 29.59 inches Hg (1002.0 mb)
Winds: from the WSW (240 degrees) at 15 MPH (13 knots; 6.7 m/s)
Visibility: 6 or more miles (10+ km)
Ceiling: 9000 feet AGL
Clouds: few clouds at 1500 feet AGL
scattered clouds at 5000 feet AGL
broken clouds at 9000 feet AGL
Weather: VCSH  (showers in vicinity)